createdAt,value
2017-08-21T00:00:11.591Z,0
2017-08-21T00:01:13.256Z,0
2017-08-21T00:02:14.913Z,0
2017-08-21T00:03:16.572Z,0
2017-08-21T00:04:18.224Z,0
2017-08-21T00:05:19.877Z,0
2017-08-21T00:06:21.560Z,0
2017-08-21T00:07:23.202Z,0
2017-08-21T00:08:24.856Z,0
2017-08-21T00:09:26.508Z,0
2017-08-21T00:10:28.164Z,0
2017-08-21T00:11:29.821Z,0
2017-08-21T00:12:31.489Z,0
2017-08-21T00:13:33.126Z,0
2017-08-21T00:14:34.794Z,0
2017-08-21T00:15:36.447Z,0
2017-08-21T00:16:38.106Z,0
2017-08-21T00:17:39.793Z,0
2017-08-21T00:18:41.428Z,0
2017-08-21T00:19:43.083Z,0
2017-08-21T00:20:44.749Z,0
2017-08-21T00:21:46.402Z,0
2017-08-21T00:22:48.057Z,0
2017-08-21T00:23:49.724Z,0
2017-08-21T00:24:51.384Z,0
2017-08-21T00:25:53.040Z,0
2017-08-21T00:26:54.731Z,0
2017-08-21T00:27:56.370Z,0
2017-08-21T00:28:58.040Z,0
2017-08-21T00:29:59.694Z,0
2017-08-21T00:31:01.354Z,0
2017-08-21T00:32:03.011Z,0
2017-08-21T00:33:04.670Z,0
2017-08-21T00:34:06.325Z,0
2017-08-21T00:35:07.994Z,0
2017-08-21T00:36:09.657Z,0
2017-08-21T00:37:11.313Z,0
2017-08-21T00:38:12.965Z,0
2017-08-21T00:39:14.637Z,0
2017-08-21T00:40:16.286Z,0
2017-08-21T00:41:17.937Z,0
2017-08-21T00:42:19.609Z,0
2017-08-21T00:43:21.261Z,0
2017-08-21T00:44:22.922Z,0
2017-08-21T00:45:24.574Z,0
2017-08-21T00:46:26.245Z,0
2017-08-21T00:47:27.892Z,0
2017-08-21T00:48:29.552Z,0
2017-08-21T00:49:31.212Z,0
2017-08-21T00:50:32.875Z,0
2017-08-21T00:51:34.532Z,0
2017-08-21T00:52:36.179Z,0
2017-08-21T00:53:37.838Z,0
2017-08-21T00:54:39.518Z,0
2017-08-21T00:55:41.174Z,0
2017-08-21T00:56:42.845Z,0
2017-08-21T00:57:44.500Z,0
2017-08-21T00:58:46.161Z,0
2017-08-21T00:59:47.815Z,0
2017-08-21T01:00:49.473Z,0
2017-08-21T01:01:51.125Z,0
2017-08-21T01:02:52.772Z,0
2017-08-21T01:03:54.434Z,0
2017-08-21T01:04:56.094Z,0
2017-08-21T01:05:57.748Z,0
2017-08-21T01:06:59.402Z,0
2017-08-21T01:08:01.061Z,0
2017-08-21T01:09:02.724Z,0
2017-08-21T01:10:04.392Z,0
2017-08-21T01:11:06.050Z,0
2017-08-21T01:12:07.698Z,0
2017-08-21T01:13:09.358Z,0
2017-08-21T01:14:11.012Z,0
2017-08-21T01:15:12.667Z,0
2017-08-21T01:16:14.318Z,0
2017-08-21T01:17:15.978Z,0
2017-08-21T01:18:17.638Z,0
2017-08-21T01:19:19.297Z,0
2017-08-21T01:20:20.963Z,0
2017-08-21T01:21:22.619Z,0
2017-08-21T01:22:24.280Z,0
2017-08-21T01:23:25.943Z,0
2017-08-21T01:24:27.588Z,0
2017-08-21T01:25:29.255Z,0
2017-08-21T01:26:30.901Z,0
2017-08-21T01:27:32.558Z,0
2017-08-21T01:28:34.201Z,0
2017-08-21T01:29:35.863Z,0
2017-08-21T01:30:37.516Z,0
2017-08-21T01:31:39.168Z,0
2017-08-21T01:32:40.823Z,0
2017-08-21T01:33:42.483Z,0
2017-08-21T01:34:44.141Z,0
2017-08-21T01:35:45.795Z,0
2017-08-21T01:36:47.449Z,0
2017-08-21T01:37:49.105Z,0
2017-08-21T01:38:50.765Z,0
2017-08-21T01:39:52.419Z,0
2017-08-21T01:40:54.074Z,0
2017-08-21T01:41:55.724Z,0
2017-08-21T01:42:57.384Z,0
2017-08-21T01:43:59.044Z,0
2017-08-21T01:45:00.727Z,0
2017-08-21T01:46:02.379Z,0
2017-08-21T01:47:04.046Z,0
2017-08-21T01:48:05.695Z,0
2017-08-21T01:49:07.361Z,0
2017-08-21T01:50:09.012Z,0
2017-08-21T01:51:10.665Z,0
2017-08-21T01:52:12.352Z,0
2017-08-21T01:53:13.985Z,0
2017-08-21T01:54:15.643Z,0
2017-08-21T01:55:17.303Z,0
2017-08-21T02:01:54.728Z,0
2017-08-21T02:02:56.382Z,0
2017-08-21T02:03:58.036Z,0
2017-08-21T02:04:59.692Z,0
2017-08-21T02:06:01.351Z,0
2017-08-21T02:07:03.014Z,0
2017-08-21T02:08:04.664Z,0
2017-08-21T02:09:06.321Z,0
2017-08-21T02:10:07.969Z,0
2017-08-21T02:11:09.625Z,0
2017-08-21T02:12:11.282Z,0
2017-08-21T02:13:12.931Z,0
2017-08-21T02:14:14.580Z,0
2017-08-21T02:15:16.262Z,0
2017-08-21T02:16:17.925Z,0
2017-08-21T02:17:19.622Z,0
2017-08-21T02:18:21.280Z,0
2017-08-21T02:19:22.943Z,0
2017-08-21T02:20:24.593Z,0
2017-08-21T02:21:26.251Z,0
2017-08-21T02:22:27.922Z,0
2017-08-21T02:23:29.581Z,0
2017-08-21T02:24:31.241Z,0
2017-08-21T02:25:32.907Z,0
2017-08-21T02:26:34.567Z,0
2017-08-21T02:27:36.235Z,0
2017-08-21T02:28:37.894Z,0
2017-08-21T02:29:39.554Z,0
2017-08-21T02:30:41.225Z,0
2017-08-21T02:31:42.876Z,0
2017-08-21T02:32:44.544Z,0
2017-08-21T02:33:46.205Z,0
2017-08-21T02:34:47.866Z,0
2017-08-21T02:35:49.517Z,0
2017-08-21T02:36:51.171Z,0
2017-08-21T02:37:52.835Z,0
2017-08-21T02:38:54.481Z,0
2017-08-21T02:39:56.146Z,0
2017-08-21T02:40:57.822Z,0
2017-08-21T02:41:59.475Z,0
2017-08-21T02:43:01.128Z,0
2017-08-21T02:44:02.789Z,0
2017-08-21T02:45:04.454Z,0
2017-08-21T02:46:06.117Z,0
2017-08-21T02:47:07.774Z,0
2017-08-21T02:48:09.427Z,0
2017-08-21T02:49:11.080Z,0
2017-08-21T02:50:12.747Z,0
2017-08-21T02:51:14.408Z,0
2017-08-21T02:52:16.071Z,0
2017-08-21T02:53:17.725Z,0
2017-08-21T02:54:19.382Z,0
2017-08-21T02:55:21.035Z,0
2017-08-21T02:56:22.689Z,0
2017-08-21T02:57:24.353Z,0
2017-08-21T02:58:26.011Z,0
2017-08-21T02:59:27.676Z,0
2017-08-21T03:00:29.338Z,0
2017-08-21T03:01:30.995Z,0
2017-08-21T03:02:32.660Z,0
2017-08-21T03:03:34.320Z,0
2017-08-21T03:04:36.001Z,0
2017-08-21T03:05:37.645Z,0
2017-08-21T03:06:39.300Z,0
2017-08-21T03:07:40.959Z,0
2017-08-21T03:08:42.621Z,0
2017-08-21T03:09:44.309Z,0
2017-08-21T03:10:45.950Z,0
2017-08-21T03:11:47.635Z,0
2017-08-21T03:12:49.295Z,0
2017-08-21T03:13:50.961Z,0
2017-08-21T03:14:52.708Z,0
2017-08-21T03:15:54.361Z,0
2017-08-21T03:16:56.017Z,0
2017-08-21T03:17:57.671Z,0
2017-08-21T03:18:59.331Z,0
2017-08-21T03:20:00.993Z,0
2017-08-21T03:21:02.652Z,0
2017-08-21T03:22:04.306Z,0
2017-08-21T03:23:05.964Z,0
2017-08-21T03:24:07.627Z,0
2017-08-21T03:25:09.278Z,0
2017-08-21T03:26:10.948Z,0
2017-08-21T03:27:12.608Z,0
2017-08-21T03:28:14.274Z,0
2017-08-21T03:29:15.927Z,0
2017-08-21T03:30:17.602Z,0
2017-08-21T03:31:19.248Z,0
2017-08-21T03:32:20.898Z,0
2017-08-21T03:33:22.573Z,0
2017-08-21T03:34:24.236Z,0
2017-08-21T03:35:25.892Z,0
2017-08-21T03:36:27.549Z,0
2017-08-21T03:37:29.216Z,0
2017-08-21T03:38:30.870Z,0
2017-08-21T03:39:32.541Z,0
2017-08-21T03:40:34.198Z,0
2017-08-21T03:41:35.858Z,0
2017-08-21T03:42:37.514Z,0
2017-08-21T03:43:39.177Z,0
2017-08-21T03:44:40.827Z,0
2017-08-21T03:45:42.484Z,0
2017-08-21T03:46:44.135Z,0
2017-08-21T03:47:45.797Z,4
2017-08-21T03:48:47.460Z,4
2017-08-21T03:49:49.114Z,4
2017-08-21T03:50:50.778Z,4
2017-08-21T03:51:52.425Z,4
2017-08-21T03:52:54.662Z,8
2017-08-21T03:53:56.321Z,4
2017-08-21T03:54:57.978Z,4
2017-08-21T03:55:59.637Z,8
2017-08-21T03:57:01.296Z,12
2017-08-21T03:58:02.954Z,12
2017-08-21T03:59:04.613Z,12
2017-08-21T04:00:06.280Z,16
2017-08-21T04:01:07.944Z,20
2017-08-21T04:02:09.604Z,24
2017-08-21T04:03:11.278Z,24
2017-08-21T04:04:12.935Z,32
2017-08-21T04:05:14.592Z,32
2017-08-21T04:06:16.260Z,40
2017-08-21T04:07:17.922Z,44
2017-08-21T04:08:19.583Z,52
2017-08-21T04:09:21.241Z,64
2017-08-21T04:10:22.893Z,76
2017-08-21T04:11:24.551Z,88
2017-08-21T04:12:26.212Z,100
2017-08-21T04:13:27.877Z,112
2017-08-21T04:14:29.536Z,128
2017-08-21T04:15:31.201Z,144
2017-08-21T04:16:32.864Z,168
2017-08-21T04:17:34.526Z,180
2017-08-21T04:18:36.202Z,200
2017-08-21T04:19:37.854Z,220
2017-08-21T04:20:39.518Z,236
2017-08-21T04:21:41.173Z,252
2017-08-21T04:22:42.827Z,272
2017-08-21T04:23:44.501Z,292
2017-08-21T04:24:46.166Z,308
2017-08-21T04:25:47.839Z,336
2017-08-21T04:26:49.623Z,360
2017-08-21T04:27:51.291Z,384
2017-08-21T04:28:52.953Z,408
2017-08-21T04:29:54.619Z,428
2017-08-21T04:30:56.282Z,456
2017-08-21T04:31:57.956Z,488
2017-08-21T04:32:59.621Z,532
2017-08-21T04:34:01.275Z,560
2017-08-21T04:35:02.944Z,608
2017-08-21T04:36:04.609Z,648
2017-08-21T04:37:06.277Z,704
2017-08-21T04:38:07.939Z,776
2017-08-21T04:39:09.614Z,836
2017-08-21T04:40:11.282Z,896
2017-08-21T04:41:12.940Z,984
2017-08-21T04:42:14.604Z,1012
2017-08-21T04:43:16.271Z,1048
2017-08-21T04:44:17.938Z,1088
2017-08-21T04:45:19.618Z,1148
2017-08-21T04:46:21.284Z,1208
2017-08-21T04:47:22.943Z,1264
2017-08-21T04:48:24.615Z,1332
2017-08-21T04:49:26.280Z,1368
2017-08-21T04:50:27.948Z,1432
2017-08-21T04:51:29.612Z,1472
2017-08-21T04:52:31.277Z,1508
2017-08-21T04:53:32.942Z,1552
2017-08-21T04:54:34.613Z,1640
2017-08-21T04:55:36.276Z,1756
2017-08-21T04:56:37.936Z,1828
2017-08-21T04:57:39.597Z,1836
2017-08-21T04:58:41.269Z,1896
2017-08-21T04:59:42.934Z,1912
2017-08-21T05:00:44.603Z,1968
2017-08-21T05:01:46.270Z,2028
2017-08-21T05:02:47.925Z,2076
2017-08-21T05:03:49.595Z,2112
2017-08-21T05:04:51.262Z,2160
2017-08-21T05:05:52.934Z,2244
2017-08-21T05:06:54.592Z,2352
2017-08-21T05:07:56.252Z,2428
2017-08-21T05:08:57.963Z,2464
2017-08-21T05:09:59.625Z,2492
2017-08-21T05:11:01.283Z,2572
2017-08-21T05:12:02.956Z,2680
2017-08-21T05:13:04.618Z,2784
2017-08-21T05:14:06.292Z,2888
2017-08-21T05:15:07.960Z,2960
2017-08-21T05:16:09.628Z,3032
2017-08-21T05:17:11.293Z,3072
2017-08-21T05:18:12.958Z,3100
2017-08-21T05:19:14.622Z,3132
2017-08-21T05:20:16.330Z,3216
2017-08-21T05:21:18.034Z,3340
2017-08-21T05:22:19.695Z,3408
2017-08-21T05:23:21.365Z,3488
2017-08-21T05:24:23.028Z,3528
2017-08-21T05:25:24.696Z,3520
2017-08-21T05:26:26.358Z,3464
2017-08-21T05:27:28.021Z,3420
2017-08-21T05:28:29.685Z,3456
2017-08-21T05:29:31.352Z,3544
2017-08-21T05:30:33.020Z,3580
2017-08-21T05:31:34.724Z,3664
2017-08-21T05:32:36.384Z,3652
2017-08-21T05:33:38.047Z,3648
2017-08-21T05:34:39.710Z,3616
2017-08-21T05:35:41.385Z,3728
2017-08-21T05:36:43.043Z,3824
2017-08-21T05:37:44.720Z,3816
2017-08-21T05:38:46.386Z,3932
2017-08-21T05:39:48.055Z,4000
2017-08-21T05:40:49.723Z,3948
2017-08-21T05:41:51.466Z,3904
2017-08-21T05:42:53.141Z,3976
2017-08-21T05:43:54.803Z,4156
2017-08-21T05:44:56.468Z,4296
2017-08-21T05:46:01.226Z,4324
2017-08-21T05:47:02.886Z,4460
2017-08-21T05:48:04.552Z,4740
2017-08-21T05:49:06.209Z,5160
2017-08-21T05:50:07.883Z,5408
2017-08-21T05:51:10.020Z,5400
2017-08-21T05:52:11.636Z,5480
2017-08-21T05:53:13.350Z,5604
2017-08-21T05:54:15.017Z,5800
2017-08-21T05:55:16.681Z,5856
2017-08-21T06:01:30.584Z,6924
2017-08-21T06:02:32.249Z,7140
2017-08-21T06:04:24.038Z,7968
2017-08-21T06:05:25.693Z,8040
2017-08-21T06:06:27.358Z,7880
2017-08-21T06:07:29.033Z,8476
2017-08-21T06:08:30.696Z,8508
2017-08-21T06:09:32.363Z,8576
2017-08-21T06:10:34.040Z,9104
2017-08-21T06:11:35.730Z,10276
2017-08-21T06:12:37.397Z,11184
2017-08-21T06:13:39.053Z,11536
2017-08-21T06:14:40.722Z,11520
2017-08-21T06:15:42.386Z,12268
2017-08-21T06:16:44.070Z,12568
2017-08-21T06:17:45.739Z,12872
2017-08-21T06:18:47.422Z,12996
2017-08-21T06:19:49.075Z,13776
2017-08-21T06:20:50.735Z,14564
2017-08-21T06:21:52.404Z,14088
2017-08-21T06:22:54.066Z,14460
2017-08-21T06:23:55.742Z,14332
2017-08-21T06:24:57.405Z,14376
2017-08-21T06:25:59.075Z,12620
2017-08-21T06:27:00.741Z,11940
2017-08-21T06:28:02.411Z,12004
2017-08-21T06:29:04.080Z,13056
2017-08-21T06:30:05.749Z,12208
2017-08-21T06:31:07.416Z,12204
2017-08-21T06:32:09.072Z,13000
2017-08-21T06:33:10.739Z,13168
2017-08-21T06:34:12.412Z,13856
2017-08-21T06:35:14.075Z,13964
2017-08-21T06:36:15.747Z,14660
2017-08-21T06:37:17.411Z,15356
2017-08-21T06:38:19.112Z,15340
2017-08-21T06:39:20.781Z,15432
2017-08-21T06:40:22.447Z,15336
2017-08-21T06:41:25.036Z,17824
2017-08-21T06:42:26.702Z,20320
2017-08-21T06:43:28.378Z,20576
2017-08-21T06:44:30.049Z,18464
2017-08-21T06:45:31.722Z,19072
2017-08-21T06:46:33.387Z,18272
2017-08-21T06:47:35.061Z,19712
2017-08-21T06:48:36.753Z,23328
2017-08-21T06:49:38.427Z,23968
2017-08-21T06:50:40.111Z,24896
2017-08-21T06:51:41.795Z,25120
2017-08-21T06:52:43.465Z,25696
2017-08-21T06:53:45.139Z,28864
2017-08-21T06:54:46.812Z,28480
2017-08-21T06:55:48.479Z,29024
2017-08-21T06:56:50.136Z,30272
2017-08-21T06:57:51.815Z,30656
2017-08-21T06:58:53.488Z,33344
2017-08-21T06:59:55.175Z,34336
2017-08-21T07:00:56.844Z,33312
2017-08-21T07:01:58.501Z,30144
2017-08-21T07:03:00.175Z,31520
2017-08-21T07:04:01.838Z,32192
2017-08-21T07:05:03.504Z,32416
2017-08-21T07:06:05.238Z,31744
2017-08-21T07:07:06.902Z,31040
2017-08-21T07:08:08.582Z,31904
2017-08-21T07:09:10.257Z,32128
2017-08-21T07:10:11.926Z,32352
2017-08-21T07:11:13.588Z,32160
2017-08-21T07:12:15.258Z,32192
2017-08-21T07:13:16.933Z,32256
2017-08-21T07:14:18.633Z,32096
2017-08-21T07:15:20.303Z,32256
2017-08-21T07:16:21.979Z,32320
2017-08-21T07:17:23.648Z,32864
2017-08-21T07:18:25.322Z,33216
2017-08-21T07:19:27.013Z,33216
2017-08-21T07:20:28.685Z,34240
2017-08-21T07:21:30.351Z,35680
2017-08-21T07:22:32.030Z,39584
2017-08-21T07:23:33.701Z,44320
2017-08-21T07:24:35.363Z,48160
2017-08-21T07:25:37.046Z,48320
2017-08-21T07:26:38.721Z,49856
2017-08-21T07:27:40.395Z,50944
2017-08-21T07:28:42.066Z,52256
2017-08-21T07:29:43.738Z,53280
2017-08-21T07:30:45.409Z,53120
2017-08-21T07:31:47.075Z,53696
2017-08-21T07:32:48.748Z,54624
2017-08-21T07:33:50.418Z,55136
2017-08-21T07:34:52.090Z,55488
2017-08-21T07:35:53.763Z,56512
2017-08-21T07:36:55.439Z,57024
2017-08-21T07:37:57.119Z,55744
2017-08-21T07:38:58.792Z,57216
2017-08-21T07:40:00.467Z,57376
2017-08-21T07:41:02.144Z,57088
2017-08-21T07:42:03.817Z,57408
2017-08-21T07:43:05.496Z,57984
2017-08-21T07:44:07.168Z,58432
2017-08-21T07:45:08.845Z,58784
2017-08-21T07:46:10.518Z,58464
2017-08-21T07:47:12.184Z,59520
2017-08-21T07:48:13.861Z,59744
2017-08-21T07:49:15.532Z,58752
2017-08-21T07:50:17.222Z,56640
2017-08-21T07:51:19.050Z,56576
2017-08-21T07:52:20.540Z,58240
2017-08-21T07:53:22.217Z,58912
2017-08-21T07:54:23.888Z,59200
2017-08-21T07:55:25.582Z,58816
2017-08-21T07:56:27.257Z,60672
2017-08-21T07:57:28.931Z,61504
2017-08-21T07:58:30.605Z,61856
2017-08-21T07:59:32.284Z,62048
2017-08-21T08:00:33.960Z,60864
2017-08-21T08:01:35.636Z,62432
2017-08-21T08:02:37.303Z,63104
2017-08-21T08:03:38.972Z,63264
2017-08-21T08:04:40.647Z,62592
2017-08-21T08:05:42.346Z,61376
2017-08-21T08:06:44.024Z,62208
2017-08-21T08:07:45.698Z,63520
2017-08-21T08:08:47.385Z,64544
2017-08-21T08:09:49.063Z,65760
2017-08-21T08:10:50.738Z,66752
2017-08-21T08:11:52.418Z,66240
2017-08-21T08:12:54.104Z,66528
2017-08-21T08:13:55.787Z,66400
2017-08-21T08:14:57.474Z,66944
2017-08-21T08:15:59.144Z,66336
2017-08-21T08:17:00.844Z,66368
2017-08-21T08:18:02.528Z,68768
2017-08-21T08:19:04.201Z,70112
2017-08-21T08:20:05.876Z,69376
2017-08-21T08:21:07.560Z,68160
2017-08-21T08:22:09.241Z,67776
2017-08-21T08:23:10.926Z,70784
2017-08-21T08:24:12.594Z,72512
2017-08-21T08:25:14.304Z,68576
2017-08-21T08:26:15.963Z,72160
2017-08-21T08:27:17.735Z,72608
2017-08-21T08:28:19.424Z,74304
2017-08-21T08:29:21.101Z,74944
2017-08-21T08:30:22.813Z,76640
2017-08-21T08:31:24.495Z,77504
2017-08-21T08:32:26.169Z,78336
2017-08-21T08:33:27.841Z,79616
2017-08-21T08:34:29.518Z,79840
2017-08-21T08:35:31.217Z,78336
2017-08-21T08:36:33.016Z,68128
2017-08-21T08:37:34.693Z,72992
2017-08-21T08:38:36.381Z,56352
2017-08-21T08:39:38.063Z,81088
2017-08-21T08:40:39.794Z,68224
2017-08-21T08:41:41.467Z,78080
2017-08-21T08:42:43.201Z,81984
2017-08-21T08:43:44.877Z,79712
2017-08-21T08:44:46.543Z,82016
2017-08-21T08:45:48.227Z,85504
2017-08-21T08:46:49.907Z,86016
2017-08-21T08:47:51.593Z,84768
2017-08-21T08:48:53.276Z,84224
2017-08-21T08:49:54.947Z,85888
2017-08-21T08:50:56.623Z,88256
2017-08-21T08:51:58.297Z,87936
2017-08-21T08:52:59.981Z,88096
2017-08-21T08:54:01.650Z,89696
2017-08-21T08:55:03.327Z,84352
2017-08-21T08:56:05.008Z,84672
2017-08-21T08:57:06.683Z,86592
2017-08-21T08:58:08.355Z,82816
2017-08-21T08:59:10.036Z,84896
2017-08-21T09:00:11.710Z,86656
2017-08-21T09:01:13.388Z,93856
2017-08-21T09:02:15.063Z,91616
2017-08-21T09:03:16.742Z,77760
2017-08-21T09:04:18.432Z,95040
2017-08-21T09:05:20.119Z,97248
2017-08-21T09:06:21.805Z,98848
2017-08-21T09:07:23.471Z,99168
2017-08-21T09:08:25.148Z,101760
2017-08-21T09:09:26.834Z,102432
2017-08-21T09:10:28.518Z,103968
2017-08-21T09:11:30.205Z,103840
2017-08-21T09:12:31.878Z,104096
2017-08-21T09:13:33.559Z,102688
2017-08-21T09:14:35.239Z,102176
2017-08-21T09:15:36.932Z,100544
2017-08-21T09:16:38.616Z,95104
2017-08-21T09:17:40.320Z,97856
2017-08-21T09:18:42.001Z,100448
2017-08-21T09:19:43.682Z,92448
2017-08-21T09:20:45.367Z,101600
2017-08-21T09:21:47.051Z,107072
2017-08-21T09:22:48.731Z,105888
2017-08-21T09:23:50.424Z,107296
2017-08-21T09:24:52.107Z,106720
2017-08-21T09:25:53.848Z,106464
2017-08-21T09:26:55.524Z,106496
2017-08-21T09:27:57.213Z,102592
2017-08-21T09:28:58.891Z,100320
2017-08-21T09:30:00.577Z,101056
2017-08-21T09:31:02.256Z,99552
2017-08-21T09:32:03.937Z,96512
2017-08-21T09:33:05.625Z,95168
2017-08-21T09:34:07.306Z,94624
2017-08-21T09:35:08.994Z,95232
2017-08-21T09:36:10.676Z,94912
2017-08-21T09:37:12.362Z,94304
2017-08-21T09:38:14.053Z,92320
2017-08-21T09:39:15.732Z,43520
2017-08-21T09:40:17.408Z,94816
2017-08-21T09:41:19.097Z,95680
2017-08-21T09:42:20.781Z,95232
2017-08-21T09:43:22.458Z,95648
2017-08-21T09:44:24.145Z,95424
2017-08-21T09:45:25.823Z,96704
2017-08-21T09:46:27.502Z,97472
2017-08-21T09:47:29.189Z,97216
2017-08-21T09:48:30.863Z,98048
2017-08-21T09:49:32.550Z,98336
2017-08-21T09:50:34.230Z,96736
2017-08-21T09:51:35.923Z,95264
2017-08-21T09:52:37.621Z,95520
2017-08-21T09:53:39.301Z,94976
2017-08-21T09:54:40.983Z,95264
2017-08-21T10:01:11.260Z,41152
2017-08-21T10:02:12.986Z,37824
2017-08-21T10:04:04.865Z,43200
2017-08-21T10:05:06.554Z,39648
2017-08-21T10:06:08.248Z,40096
2017-08-21T10:07:09.930Z,63072
2017-08-21T10:08:11.611Z,96832
2017-08-21T10:09:13.290Z,45664
2017-08-21T10:10:14.982Z,45376
2017-08-21T10:11:16.683Z,97504
2017-08-21T10:12:18.363Z,101920
2017-08-21T10:13:20.034Z,99776
2017-08-21T10:14:23.330Z,99616
2017-08-21T10:15:25.621Z,100768
2017-08-21T10:16:27.305Z,103104
2017-08-21T10:17:28.990Z,103104
2017-08-21T10:18:30.687Z,103392
2017-08-21T10:19:32.358Z,106240
2017-08-21T10:20:34.042Z,105248
2017-08-21T10:21:35.753Z,103616
2017-08-21T10:22:37.415Z,103840
2017-08-21T10:23:39.154Z,56832
2017-08-21T10:24:42.429Z,38976
2017-08-21T10:25:44.115Z,33408
2017-08-21T10:26:50.954Z,29120
2017-08-21T10:27:52.645Z,26848
2017-08-21T10:28:54.330Z,26656
2017-08-21T10:29:56.017Z,24256
2017-08-21T10:30:57.708Z,23776
2017-08-21T10:31:59.374Z,23808
2017-08-21T10:33:01.062Z,24384
2017-08-21T10:34:02.744Z,24896
2017-08-21T10:35:04.414Z,25536
2017-08-21T10:36:06.097Z,26176
2017-08-21T10:37:07.783Z,27392
2017-08-21T10:38:09.466Z,27072
2017-08-21T10:39:11.153Z,28256
2017-08-21T10:40:12.843Z,29312
2017-08-21T10:41:14.533Z,30944
2017-08-21T10:42:16.205Z,32832
2017-08-21T10:43:17.890Z,34976
2017-08-21T10:44:19.569Z,37440
2017-08-21T10:45:21.252Z,41568
2017-08-21T10:46:22.928Z,46656
2017-08-21T10:47:24.620Z,130560
2017-08-21T10:48:26.299Z,134592
2017-08-21T10:49:28.003Z,128832
2017-08-21T10:50:29.694Z,125568
2017-08-21T10:51:31.368Z,122848
2017-08-21T10:52:33.044Z,124864
2017-08-21T10:53:34.724Z,123616
2017-08-21T10:54:36.404Z,59008
2017-08-21T10:55:38.168Z,90976
2017-08-21T10:56:39.896Z,63040
2017-08-21T10:57:41.575Z,44416
2017-08-21T10:58:43.259Z,63968
2017-08-21T10:59:44.938Z,39296
2017-08-21T11:00:46.626Z,38624
2017-08-21T11:01:48.321Z,40704
2017-08-21T11:02:50.026Z,73600
2017-08-21T11:03:51.694Z,69312
2017-08-21T11:04:53.384Z,46336
2017-08-21T11:05:55.069Z,44000
2017-08-21T11:06:56.748Z,44544
2017-08-21T11:07:58.426Z,49280
2017-08-21T11:09:00.112Z,55616
2017-08-21T11:10:01.772Z,99296
2017-08-21T11:11:03.455Z,73312
2017-08-21T11:12:05.130Z,119392
2017-08-21T11:13:06.818Z,117248
2017-08-21T11:14:08.510Z,116608
2017-08-21T11:15:10.182Z,116384
2017-08-21T11:16:12.062Z,115616
2017-08-21T11:17:13.898Z,119424
2017-08-21T11:18:15.584Z,120288
2017-08-21T11:19:17.266Z,118240
2017-08-21T11:20:18.939Z,119200
2017-08-21T11:21:21.682Z,116096
2017-08-21T11:22:23.368Z,104768
2017-08-21T11:23:25.055Z,38368
2017-08-21T11:24:26.735Z,34688
2017-08-21T11:25:29.987Z,33120
2017-08-21T11:26:33.940Z,31968
2017-08-21T11:27:36.447Z,30784
2017-08-21T11:28:38.126Z,29984
2017-08-21T11:29:41.950Z,29728
2017-08-21T11:30:43.785Z,31584
2017-08-21T11:31:45.459Z,32320
2017-08-21T11:32:47.146Z,32256
2017-08-21T11:33:49.671Z,32800
2017-08-21T11:34:51.359Z,33696
2017-08-21T11:35:53.045Z,45504
2017-08-21T11:36:54.744Z,43488
2017-08-21T11:37:57.555Z,104640
2017-08-21T11:39:02.247Z,100384
2017-08-21T11:40:12.227Z,102304
2017-08-21T11:41:13.754Z,101856
2017-08-21T11:42:15.465Z,100896
2017-08-21T11:43:20.599Z,103008
2017-08-21T11:44:22.303Z,102080
2017-08-21T11:45:24.082Z,102816
2017-08-21T11:46:25.831Z,102752
2017-08-21T11:47:27.547Z,101952
2017-08-21T11:48:31.137Z,100736
2017-08-21T11:49:32.999Z,100832
2017-08-21T11:50:34.796Z,98368
2017-08-21T11:51:36.543Z,99968
2017-08-21T11:52:38.333Z,99008
2017-08-21T11:53:40.066Z,96480
2017-08-21T11:54:41.803Z,92160
2017-08-21T11:55:43.571Z,91008
2017-08-21T11:56:45.397Z,72832
2017-08-21T11:57:47.188Z,47808
2017-08-21T12:00:03.700Z,47520
2017-08-21T12:01:05.498Z,42208
2017-08-21T12:02:07.206Z,46880
2017-08-21T12:03:11.873Z,57696
2017-08-21T12:04:13.626Z,66624
2017-08-21T12:06:42.112Z,36832
2017-08-21T12:07:43.917Z,37472
2017-08-21T12:08:48.247Z,46624
2017-08-21T12:09:50.011Z,82592
2017-08-21T12:10:51.749Z,73504
2017-08-21T12:11:53.503Z,36864
2017-08-21T12:12:55.243Z,36800
2017-08-21T12:13:58.129Z,36096
2017-08-21T12:15:00.092Z,35424
2017-08-21T12:16:01.862Z,36352
2017-08-21T12:17:03.600Z,38240
2017-08-21T12:18:05.350Z,90688
2017-08-21T12:19:15.426Z,93024
2017-08-21T12:20:17.222Z,91168
2017-08-21T12:21:18.959Z,91648
2017-08-21T12:22:20.709Z,92608
2017-08-21T12:23:22.437Z,94144
2017-08-21T12:24:24.434Z,91168
2017-08-21T12:25:26.090Z,94976
2017-08-21T12:26:27.826Z,95296
2017-08-21T12:27:29.893Z,94368
2017-08-21T12:28:31.635Z,90880
2017-08-21T12:29:33.392Z,90944
2017-08-21T12:30:35.197Z,62944
2017-08-21T12:31:36.930Z,36608
2017-08-21T12:32:38.689Z,34528
2017-08-21T12:33:40.471Z,34752
2017-08-21T12:34:42.274Z,35744
2017-08-21T12:35:44.098Z,36128
2017-08-21T12:36:45.934Z,36608
2017-08-21T12:37:47.741Z,38048
2017-08-21T12:38:49.488Z,92800
2017-08-21T12:39:51.263Z,49216
2017-08-21T12:40:53.016Z,100320
2017-08-21T12:41:55.078Z,102400
2017-08-21T12:42:56.815Z,105312
2017-08-21T12:43:58.606Z,102848
2017-08-21T12:45:00.416Z,103264
2017-08-21T12:46:02.155Z,103712
2017-08-21T12:47:03.887Z,104192
2017-08-21T12:48:05.829Z,105888
2017-08-21T12:49:07.787Z,108224
2017-08-21T12:50:09.633Z,109248
2017-08-21T12:51:11.628Z,108768
2017-08-21T12:52:13.432Z,107296
2017-08-21T12:53:15.257Z,106848
2017-08-21T12:54:17.383Z,110528
2017-08-21T12:55:19.024Z,109920
2017-08-21T12:56:20.761Z,112960
2017-08-21T12:57:22.485Z,115968
2017-08-21T12:58:24.207Z,112928
2017-08-21T12:59:25.883Z,118208
2017-08-21T13:00:27.581Z,115296
2017-08-21T13:01:29.287Z,115872
2017-08-21T13:02:30.974Z,113376
2017-08-21T13:03:32.659Z,104480
2017-08-21T13:04:34.364Z,109568
2017-08-21T13:05:36.070Z,112000
2017-08-21T13:06:37.782Z,108032
2017-08-21T13:07:39.460Z,102400
2017-08-21T13:08:41.152Z,56064
2017-08-21T13:09:42.830Z,95424
2017-08-21T13:10:44.516Z,105056
2017-08-21T13:11:46.234Z,104032
2017-08-21T13:12:47.975Z,83648
2017-08-21T13:13:49.842Z,111456
2017-08-21T13:14:51.665Z,110560
2017-08-21T13:15:53.398Z,108960
2017-08-21T13:16:55.082Z,107392
2017-08-21T13:17:56.774Z,103072
2017-08-21T13:18:58.497Z,100640
2017-08-21T13:20:00.449Z,65792
2017-08-21T13:21:02.564Z,103936
2017-08-21T13:22:04.557Z,62304
2017-08-21T13:23:06.430Z,62144
2017-08-21T13:24:08.172Z,40128
2017-08-21T13:25:09.898Z,35680
2017-08-21T13:26:11.579Z,37120
2017-08-21T13:27:13.402Z,42048
2017-08-21T13:28:15.106Z,75456
2017-08-21T13:29:16.984Z,38176
2017-08-21T13:30:18.969Z,34336
2017-08-21T13:31:21.253Z,33344
2017-08-21T13:32:22.907Z,33376
2017-08-21T13:33:24.781Z,37312
2017-08-21T13:34:26.753Z,33952
2017-08-21T13:35:28.648Z,34528
2017-08-21T13:36:30.438Z,49280
2017-08-21T13:37:32.373Z,39840
2017-08-21T13:38:34.382Z,36128
2017-08-21T13:39:36.592Z,35328
2017-08-21T13:40:38.605Z,44384
2017-08-21T13:41:40.998Z,45184
2017-08-21T13:42:42.651Z,45408
2017-08-21T13:43:44.710Z,33984
2017-08-21T13:44:46.666Z,35456
2017-08-21T13:45:48.960Z,32896
2017-08-21T13:46:50.869Z,31968
2017-08-21T13:47:54.006Z,30720
2017-08-21T13:48:56.176Z,30976
2017-08-21T13:49:58.288Z,33248
2017-08-21T13:51:00.168Z,45472
2017-08-21T13:52:02.241Z,48640
2017-08-21T13:53:04.129Z,53408
2017-08-21T13:54:06.168Z,52128
2017-08-21T13:55:07.968Z,47200
2017-08-21T13:56:09.959Z,45696
2017-08-21T14:01:59.976Z,22208
2017-08-21T14:03:01.659Z,21664
2017-08-21T14:04:03.345Z,22048
2017-08-21T14:05:05.158Z,21984
2017-08-21T14:06:07.047Z,21856
2017-08-21T14:07:08.987Z,22048
2017-08-21T14:08:10.585Z,22336
2017-08-21T14:09:12.235Z,22816
2017-08-21T14:10:13.928Z,23328
2017-08-21T14:11:15.752Z,23776
2017-08-21T14:12:17.424Z,24064
2017-08-21T14:13:19.091Z,24416